Time;durP1;ratioP1;P1;durP2;ratioP2;P2;SDS_P1;SDS_P2;PMS_P1;PMS_P2;Temp;Humidity;BMP_temperature;BMP_pressure;BME280_temperature;BME280_humidity;BME280_pressure;Samples;Min_cycle;Max_cycle;Signal;HPM_P1;HPM_P2
2021/07/31 00:01:03;;;;;;;15.53;14.63;;;16.70;99.90;;;;;;5054114;28;20463;-71
2021/07/31 00:03:30;;;;;;;13.90;13.10;;;16.80;99.90;;;;;;5056466;28;20479;-71
2021/07/31 00:05:57;;;;;;;15.83;14.83;;;16.80;99.90;;;;;;5051343;28;20462;-70
2021/07/31 00:08:25;;;;;;;14.37;13.37;;;16.90;99.90;;;;;;5059274;28;20459;-70
2021/07/31 00:10:53;;;;;;;15.33;14.00;;;17.00;99.90;;;;;;5056808;28;20449;-70
2021/07/31 00:13:20;;;;;;;14.83;13.50;;;17.00;99.90;;;;;;5055743;28;20975;-71
2021/07/31 00:15:47;;;;;;;15.67;14.47;;;17.00;99.90;;;;;;5053660;28;20479;-70
2021/07/31 00:18:14;;;;;;;14.20;13.37;;;17.10;99.90;;;;;;5061796;28;20451;-70
2021/07/31 00:20:41;;;;;;;14.50;13.70;;;17.10;99.90;;;;;;5052145;28;20467;-69
2021/07/31 00:23:09;;;;;;;14.90;14.03;;;17.10;99.90;;;;;;5059963;28;21000;-70
2021/07/31 00:25:38;;;;;;;14.67;13.80;;;17.10;99.90;;;;;;5053633;28;20456;-70
2021/07/31 00:28:07;;;;;;;15.47;14.00;;;17.20;99.90;;;;;;5056924;28;20469;-69
2021/07/31 00:30:34;;;;;;;15.33;14.30;;;17.20;99.90;;;;;;5058543;28;20537;-69
2021/07/31 00:33:01;;;;;;;17.43;15.00;;;17.10;99.90;;;;;;5054908;28;20463;-70
2021/07/31 00:35:29;;;;;;;14.87;13.83;;;17.10;99.90;;;;;;5055804;28;20584;-71
2021/07/31 00:37:56;;;;;;;14.27;13.47;;;17.10;99.90;;;;;;5062780;28;20461;-69
2021/07/31 00:40:23;;;;;;;14.57;13.70;;;17.10;99.90;;;;;;5056297;28;20548;-72
2021/07/31 00:42:52;;;;;;;15.30;14.20;;;17.20;99.90;;;;;;5057228;28;20478;-70
2021/07/31 00:45:19;;;;;;;14.93;13.73;;;17.10;99.90;;;;;;5061148;28;20479;-70
2021/07/31 00:47:47;;;;;;;14.63;13.43;;;17.10;99.90;;;;;;5058604;28;21018;-70
2021/07/31 00:50:15;;;;;;;15.00;13.93;;;17.10;99.90;;;;;;5056364;28;20452;-70
2021/07/31 00:52:43;;;;;;;16.27;14.63;;;17.10;99.90;;;;;;5055327;28;20460;-71
2021/07/31 00:55:12;;;;;;;14.37;13.37;;;17.00;99.90;;;;;;5061660;28;20459;-69
2021/07/31 00:57:41;;;;;;;20.60;14.20;;;17.00;99.90;;;;;;5056281;28;20467;-71
2021/07/31 01:00:10;;;;;;;15.40;14.37;;;17.00;99.90;;;;;;5057802;28;20470;-70
2021/07/31 01:02:37;;;;;;;14.63;13.73;;;16.90;99.90;;;;;;5057389;28;20459;-71
2021/07/31 01:05:04;;;;;;;16.07;14.67;;;16.90;99.90;;;;;;5055668;28;20459;-70
2021/07/31 01:07:32;;;;;;;14.97;13.80;;;16.90;99.90;;;;;;5054497;28;20456;-73
2021/07/31 01:09:59;;;;;;;14.40;13.50;;;17.00;99.90;;;;;;5059636;28;20460;-70
2021/07/31 01:12:26;;;;;;;15.70;14.50;;;17.00;99.90;;;;;;5056173;28;20463;-71
2021/07/31 01:14:53;;;;;;;14.40;13.60;;;17.00;99.90;;;;;;5051649;28;20535;-69
2021/07/31 01:17:22;;;;;;;14.60;13.60;;;17.00;99.90;;;;;;5055017;28;20475;-70
2021/07/31 01:19:50;;;;;;;14.93;14.03;;;16.90;99.90;;;;;;5055165;28;20467;-72
2021/07/31 01:22:19;;;;;;;15.20;13.90;;;16.80;99.90;;;;;;5052630;28;21026;-70
2021/07/31 01:24:47;;;;;;;14.60;13.90;;;16.80;99.90;;;;;;5050467;28;21009;-70
2021/07/31 01:27:13;;;;;;;15.10;14.03;;;16.90;99.90;;;;;;5062920;28;20643;-70
2021/07/31 01:29:42;;;;;;;14.73;13.83;;;17.00;99.90;;;;;;5061709;28;20819;-70
2021/07/31 01:32:10;;;;;;;14.80;14.00;;;17.00;99.90;;;;;;5053188;28;20992;-72
2021/07/31 01:34:37;;;;;;;15.13;13.73;;;17.00;99.90;;;;;;5059482;28;20794;-72
2021/07/31 01:37:05;;;;;;;15.07;13.60;;;17.00;99.90;;;;;;5054809;28;20477;-72
2021/07/31 01:39:34;;;;;;;15.30;14.30;;;17.00;99.90;;;;;;5059293;28;20459;-71
2021/07/31 01:42:02;;;;;;;15.43;14.40;;;17.00;99.90;;;;;;5050580;28;20949;-72
2021/07/31 01:44:30;;;;;;;14.80;13.90;;;16.90;99.90;;;;;;5055715;28;20498;-70
2021/07/31 01:46:57;;;;;;;14.67;13.67;;;17.00;99.90;;;;;;5056238;28;20562;-69
2021/07/31 01:49:24;;;;;;;14.97;13.97;;;17.00;99.90;;;;;;5052804;28;20917;-70
2021/07/31 01:51:51;;;;;;;15.57;14.23;;;17.00;99.90;;;;;;5054772;28;20460;-69
2021/07/31 01:54:18;;;;;;;16.23;15.13;;;17.00;99.90;;;;;;5063274;28;20459;-70
2021/07/31 01:56:47;;;;;;;15.07;13.77;;;17.00;99.90;;;;;;5059340;28;20466;-69
2021/07/31 01:59:14;;;;;;;14.43;13.50;;;17.00;99.90;;;;;;5054699;28;20498;-70
2021/07/31 02:01:42;;;;;;;14.37;13.57;;;17.00;99.90;;;;;;5055289;28;20486;-71
2021/07/31 02:04:11;;;;;;;15.00;13.80;;;17.00;99.90;;;;;;5052951;28;20498;-69
2021/07/31 02:06:38;;;;;;;14.60;13.57;;;17.00;99.90;;;;;;5054010;28;20460;-70
2021/07/31 02:09:05;;;;;;;15.50;14.33;;;17.00;99.90;;;;;;5051974;28;20544;-71
2021/07/31 02:11:32;;;;;;;15.40;14.50;;;17.00;99.90;;;;;;5056180;28;20550;-69
2021/07/31 02:14:03;;;;;;;14.57;13.67;;;17.00;99.90;;;;;;5057769;28;20466;-69
2021/07/31 02:16:31;;;;;;;15.70;14.57;;;17.00;99.90;;;;;;5052830;28;20533;-69
2021/07/31 02:18:58;;;;;;;15.43;13.90;;;17.00;99.90;;;;;;5050551;28;20950;-72
2021/07/31 02:21:26;;;;;;;14.67;13.80;;;17.00;99.90;;;;;;5053792;28;20456;-69
2021/07/31 02:23:53;;;;;;;14.77;13.87;;;17.00;99.90;;;;;;5052701;28;20480;-73
2021/07/31 02:26:20;;;;;;;15.33;14.10;;;17.00;99.90;;;;;;5056492;28;20463;-72
2021/07/31 02:28:47;;;;;;;15.57;14.33;;;17.00;99.90;;;;;;5053079;28;20933;-73
2021/07/31 02:31:15;;;;;;;14.40;13.60;;;16.90;99.90;;;;;;5055454;28;20543;-69
2021/07/31 02:33:42;;;;;;;15.60;14.40;;;17.00;99.90;;;;;;5052396;28;20456;-70
2021/07/31 02:36:09;;;;;;;15.00;13.90;;;17.00;99.90;;;;;;5055285;28;20458;-69
2021/07/31 02:38:37;;;;;;;15.10;14.00;;;16.80;99.90;;;;;;5059652;28;20545;-70
2021/07/31 02:41:04;;;;;;;14.83;13.93;;;16.80;99.90;;;;;;5051640;28;20460;-69
2021/07/31 02:43:32;;;;;;;16.73;15.07;;;16.70;99.90;;;;;;5047565;28;20878;-72
2021/07/31 02:46:05;;;;;;;15.57;14.43;;;16.70;99.90;;;;;;5062316;28;20467;-71
2021/07/31 02:48:34;;;;;;;15.57;14.40;;;16.70;99.90;;;;;;5054434;28;20794;-69
2021/07/31 02:51:04;;;;;;;14.70;13.80;;;16.70;99.90;;;;;;5055759;28;20465;-69
2021/07/31 02:53:32;;;;;;;15.37;14.33;;;16.70;99.90;;;;;;5056824;28;20466;-71
2021/07/31 02:56:00;;;;;;;16.33;15.07;;;16.70;99.90;;;;;;5057623;28;20503;-69
2021/07/31 02:58:27;;;;;;;15.63;14.23;;;16.80;99.90;;;;;;5058668;28;20800;-72
2021/07/31 03:00:54;;;;;;;20.23;14.80;;;16.80;99.90;;;;;;5052756;28;20467;-69
2021/07/31 03:03:22;;;;;;;14.10;13.40;;;16.70;99.90;;;;;;5057419;28;20451;-69
2021/07/31 03:05:58;;;;;;;15.20;14.40;;;16.60;99.90;;;;;;5059183;28;20465;-70
2021/07/31 03:08:27;;;;;;;15.70;14.43;;;16.60;99.90;;;;;;5054089;28;21119;-69
2021/07/31 03:10:55;;;;;;;15.30;14.50;;;16.60;99.90;;;;;;5059804;28;21298;-69
2021/07/31 03:13:22;;;;;;;14.80;13.93;;;16.50;99.90;;;;;;5048722;28;20837;-68
2021/07/31 03:15:50;;;;;;;15.07;14.17;;;16.50;99.90;;;;;;5058151;28;20483;-71
2021/07/31 03:18:17;;;;;;;14.30;13.40;;;16.60;99.90;;;;;;5060171;28;20463;-70
2021/07/31 03:20:48;;;;;;;15.37;14.37;;;16.60;99.90;;;;;;5057013;28;20460;-70
2021/07/31 03:23:19;;;;;;;15.50;14.43;;;16.60;99.90;;;;;;5052082;28;20455;-71
2021/07/31 03:25:47;;;;;;;15.40;14.20;;;16.50;99.90;;;;;;5047115;28;20802;-69
2021/07/31 03:28:15;;;;;;;15.60;14.00;;;16.50;99.90;;;;;;5059069;28;20467;-69
2021/07/31 03:30:42;;;;;;;15.83;14.53;;;16.50;99.90;;;;;;5055710;28;20858;-71
2021/07/31 03:33:10;;;;;;;15.97;15.07;;;16.50;99.90;;;;;;5054871;28;20454;-69
2021/07/31 03:35:37;;;;;;;14.70;13.70;;;16.40;99.90;;;;;;5056503;28;20458;-69
2021/07/31 03:38:05;;;;;;;15.20;14.20;;;16.50;99.90;;;;;;5052525;28;20466;-70
2021/07/31 03:40:33;;;;;;;14.70;13.70;;;16.40;99.90;;;;;;5057290;28;21044;-72
2021/07/31 03:43:00;;;;;;;15.60;14.60;;;16.40;99.90;;;;;;5047046;28;20456;-72
2021/07/31 03:45:27;;;;;;;14.80;13.80;;;16.40;99.90;;;;;;5057241;28;20486;-69
2021/07/31 03:47:54;;;;;;;16.83;15.53;;;16.30;99.90;;;;;;5054239;28;20977;-71
2021/07/31 03:50:21;;;;;;;16.37;14.90;;;16.30;99.90;;;;;;5060843;28;20466;-70
2021/07/31 03:52:48;;;;;;;15.80;14.80;;;16.40;99.90;;;;;;5053043;28;20456;-69
2021/07/31 03:55:15;;;;;;;15.80;14.30;;;16.30;99.90;;;;;;5054852;28;20451;-70
2021/07/31 03:57:44;;;;;;;15.00;14.20;;;16.30;99.90;;;;;;5057787;28;20500;-71
2021/07/31 04:00:12;;;;;;;15.57;14.60;;;16.20;99.90;;;;;;5061231;28;20788;-69
2021/07/31 04:02:39;;;;;;;15.10;14.20;;;16.20;99.90;;;;;;5053930;28;20459;-69
2021/07/31 04:05:06;;;;;;;15.97;14.83;;;16.10;99.90;;;;;;5063231;28;20498;-69
2021/07/31 04:07:33;;;;;;;16.40;15.30;;;16.00;99.90;;;;;;5060771;28;20486;-69
2021/07/31 04:10:00;;;;;;;14.70;13.90;;;16.00;99.90;;;;;;5057623;28;20462;-68
2021/07/31 04:12:28;;;;;;;15.97;14.70;;;16.00;99.90;;;;;;5053718;28;20463;-68
2021/07/31 04:14:57;;;;;;;15.30;14.37;;;16.00;99.90;;;;;;5055379;28;20466;-70
2021/07/31 04:17:24;;;;;;;15.23;14.37;;;16.00;99.90;;;;;;5059022;28;20478;-72
2021/07/31 04:19:52;;;;;;;15.17;14.27;;;16.10;99.90;;;;;;5061104;28;20617;-72
2021/07/31 04:22:19;;;;;;;15.27;14.37;;;16.10;99.90;;;;;;5048974;28;20471;-69
2021/07/31 04:24:47;;;;;;;16.17;14.87;;;16.10;99.90;;;;;;5059018;28;20486;-71
2021/07/31 04:27:14;;;;;;;16.40;15.20;;;16.20;99.90;;;;;;5055149;28;20824;-69
2021/07/31 04:29:41;;;;;;;15.60;14.43;;;16.20;99.90;;;;;;5055312;28;20496;-69
2021/07/31 04:32:10;;;;;;;15.80;14.53;;;16.20;99.90;;;;;;5052280;28;20455;-68
2021/07/31 04:34:37;;;;;;;15.73;14.73;;;16.20;99.90;;;;;;5050891;28;20471;-69
2021/07/31 04:37:04;;;;;;;16.30;15.27;;;16.30;99.90;;;;;;5055045;28;20544;-69
2021/07/31 04:39:32;;;;;;;15.80;14.60;;;16.30;99.90;;;;;;5055705;28;20455;-69
2021/07/31 04:42:00;;;;;;;15.70;14.70;;;16.40;99.90;;;;;;5059787;28;20456;-71
2021/07/31 04:44:26;;;;;;;16.53;15.00;;;16.30;99.90;;;;;;5057876;28;20917;-69
2021/07/31 04:46:54;;;;;;;16.53;15.53;;;16.40;99.90;;;;;;5058690;28;20982;-73
2021/07/31 04:49:22;;;;;;;16.53;15.13;;;16.30;99.90;;;;;;5053612;28;20464;-72
2021/07/31 04:51:50;;;;;;;14.63;13.67;;;16.40;99.90;;;;;;5052892;28;20503;-68
2021/07/31 04:54:19;;;;;;;16.93;15.63;;;16.40;99.90;;;;;;5057994;28;20459;-71
2021/07/31 04:56:47;;;;;;;15.43;14.50;;;16.40;99.90;;;;;;5059803;28;20455;-69
2021/07/31 04:59:14;;;;;;;18.37;16.73;;;16.50;99.90;;;;;;5053039;28;20490;-69
2021/07/31 05:01:40;;;;;;;15.80;14.70;;;16.50;99.90;;;;;;5057249;28;20949;-69
2021/07/31 05:04:08;;;;;;;16.93;15.40;;;16.50;99.90;;;;;;5057797;28;20471;-69
2021/07/31 05:06:37;;;;;;;17.10;15.60;;;16.50;99.90;;;;;;5053742;28;20558;-72
2021/07/31 05:09:07;;;;;;;15.93;14.83;;;16.40;99.90;;;;;;5057822;28;20455;-71
2021/07/31 05:11:34;;;;;;;15.93;14.80;;;16.50;99.90;;;;;;5053868;28;20505;-69
2021/07/31 05:14:01;;;;;;;16.87;15.33;;;16.40;99.90;;;;;;5052797;28;20965;-69
2021/07/31 05:16:30;;;;;;;15.20;14.20;;;16.50;99.90;;;;;;5053782;28;20506;-69
2021/07/31 05:18:57;;;;;;;15.90;14.93;;;16.40;99.90;;;;;;5059610;28;20458;-69
2021/07/31 05:21:24;;;;;;;16.10;15.10;;;16.50;99.90;;;;;;5057363;28;20530;-69
2021/07/31 05:23:52;;;;;;;15.70;14.53;;;16.50;99.90;;;;;;5057256;28;20475;-71
2021/07/31 05:26:19;;;;;;;15.87;14.70;;;16.50;99.90;;;;;;5057295;28;20470;-68
2021/07/31 05:28:46;;;;;;;16.17;14.87;;;16.60;99.90;;;;;;5049166;28;20463;-69
2021/07/31 05:31:22;;;;;;;15.70;14.60;;;16.60;99.90;;;;;;5058116;28;21024;-69
2021/07/31 05:33:49;;;;;;;15.60;14.40;;;16.60;99.90;;;;;;5060483;28;20458;-72
2021/07/31 05:36:16;;;;;;;15.87;14.57;;;16.70;99.90;;;;;;5056092;28;20958;-68
2021/07/31 05:38:42;;;;;;;15.90;14.90;;;16.70;99.90;;;;;;5053273;28;20463;-68
2021/07/31 05:41:16;;;;;;;16.40;15.20;;;16.70;99.90;;;;;;5054009;28;20462;-70
2021/07/31 05:43:43;;;;;;;16.13;14.93;;;16.70;99.90;;;;;;5055371;28;20473;-69
2021/07/31 05:46:10;;;;;;;15.53;14.70;;;16.80;99.90;;;;;;5056208;28;20491;-70
2021/07/31 05:48:37;;;;;;;15.13;14.13;;;16.90;99.90;;;;;;5059731;28;20807;-68
2021/07/31 05:51:04;;;;;;;15.60;14.60;;;16.90;99.90;;;;;;5057877;28;20829;-69
2021/07/31 05:53:31;;;;;;;14.80;13.90;;;16.90;99.90;;;;;;5059210;28;21141;-71
2021/07/31 05:55:59;;;;;;;16.13;14.77;;;16.80;99.90;;;;;;5054861;28;20923;-70
2021/07/31 05:58:28;;;;;;;17.67;15.73;;;16.70;99.90;;;;;;5054396;28;20463;-69
2021/07/31 06:00:54;;;;;;;14.70;13.70;;;16.80;99.90;;;;;;5054547;28;20474;-68
2021/07/31 06:03:21;;;;;;;16.73;15.43;;;16.90;99.90;;;;;;5054889;28;20451;-69
2021/07/31 06:05:48;;;;;;;16.17;14.77;;;17.00;99.90;;;;;;5060756;28;20497;-69
2021/07/31 06:08:15;;;;;;;17.33;16.20;;;17.20;99.90;;;;;;5053851;28;20498;-69
2021/07/31 06:10:42;;;;;;;14.90;14.00;;;17.20;99.90;;;;;;5059884;28;20459;-71
2021/07/31 06:13:09;;;;;;;15.50;14.00;;;17.30;99.90;;;;;;5055702;28;20463;-69
2021/07/31 06:15:41;;;;;;;16.30;15.07;;;17.20;99.90;;;;;;5053495;28;20451;-68
2021/07/31 06:18:07;;;;;;;15.57;14.57;;;17.20;99.90;;;;;;5054048;28;20522;-68
2021/07/31 06:20:34;;;;;;;16.27;14.90;;;17.10;99.90;;;;;;5056994;28;20455;-68
2021/07/31 06:23:01;;;;;;;15.27;14.10;;;17.00;99.90;;;;;;5056372;28;20813;-71
2021/07/31 06:25:28;;;;;;;15.80;14.50;;;16.80;99.90;;;;;;5059980;28;20581;-71
2021/07/31 06:27:55;;;;;;;14.87;14.07;;;16.70;99.90;;;;;;5049486;28;20470;-69
2021/07/31 06:30:22;;;;;;;15.73;14.33;;;16.90;99.90;;;;;;5056147;28;20450;-69
2021/07/31 06:32:51;;;;;;;16.00;15.10;;;16.90;99.90;;;;;;5049710;28;20963;-69
2021/07/31 06:35:18;;;;;;;16.97;15.67;;;17.10;99.90;;;;;;5052079;28;20946;-69
2021/07/31 06:37:46;;;;;;;15.60;14.40;;;17.20;99.90;;;;;;5047782;28;20455;-68
2021/07/31 06:40:14;;;;;;;15.90;14.60;;;17.30;99.90;;;;;;5050553;28;20467;-69
2021/07/31 06:42:41;;;;;;;15.87;14.97;;;17.20;99.90;;;;;;5053315;28;20474;-69
2021/07/31 06:45:10;;;;;;;17.03;15.93;;;17.10;99.90;;;;;;5059795;28;20482;-71
2021/07/31 06:47:37;;;;;;;15.63;14.73;;;17.00;99.90;;;;;;5055505;28;20450;-68
2021/07/31 06:50:09;;;;;;;15.63;14.73;;;16.90;99.90;;;;;;5050786;28;20481;-71
2021/07/31 06:52:38;;;;;;;16.97;15.87;;;17.10;99.90;;;;;;5054316;28;20462;-69
2021/07/31 06:55:06;;;;;;;16.03;14.83;;;17.20;99.90;;;;;;5060655;28;20470;-69
2021/07/31 06:57:32;;;;;;;16.43;15.40;;;17.30;99.90;;;;;;5059506;28;20467;-68
2021/07/31 07:00:00;;;;;;;16.30;15.20;;;17.50;99.90;;;;;;5058611;28;20576;-68
2021/07/31 07:02:27;;;;;;;16.17;15.00;;;17.60;99.90;;;;;;5060978;28;20980;-68
2021/07/31 07:04:54;;;;;;;15.90;14.80;;;17.80;99.90;;;;;;5047203;28;20522;-68
2021/07/31 07:07:22;;;;;;;16.33;15.40;;;17.80;99.90;;;;;;5054110;28;20460;-68
2021/07/31 07:09:49;;;;;;;15.10;14.00;;;18.00;99.90;;;;;;5056809;28;20463;-69
2021/07/31 07:12:17;;;;;;;16.10;15.10;;;18.10;99.90;;;;;;5056990;28;20871;-68
2021/07/31 07:14:44;;;;;;;15.50;14.33;;;18.00;99.90;;;;;;5054121;28;20535;-68
2021/07/31 07:17:11;;;;;;;16.80;15.47;;;18.00;99.90;;;;;;5056835;28;20483;-68
2021/07/31 07:19:38;;;;;;;16.33;15.10;;;18.20;99.90;;;;;;5053687;28;20462;-68
2021/07/31 07:22:06;;;;;;;17.23;15.80;;;18.20;99.90;;;;;;5061470;28;20509;-68
2021/07/31 07:24:36;;;;;;;15.77;14.77;;;18.10;99.90;;;;;;5057935;28;20466;-68
2021/07/31 07:27:04;;;;;;;15.73;14.60;;;18.30;99.90;;;;;;5058578;28;20471;-68
2021/07/31 07:29:31;;;;;;;16.20;15.23;;;18.50;99.90;;;;;;5064148;28;20487;-68
2021/07/31 07:31:58;;;;;;;16.87;15.53;;;18.10;99.90;;;;;;5058092;28;20443;-68
2021/07/31 07:34:25;;;;;;;16.70;15.57;;;18.10;99.90;;;;;;5052729;28;20455;-70
2021/07/31 07:36:52;;;;;;;16.37;15.13;;;18.20;99.90;;;;;;5058813;28;21000;-68
2021/07/31 07:39:19;;;;;;;16.40;15.40;;;18.20;99.90;;;;;;5062364;28;20469;-68
2021/07/31 07:41:47;;;;;;;15.77;14.57;;;18.10;99.90;;;;;;5056965;28;20986;-68
2021/07/31 07:44:14;;;;;;;16.83;15.70;;;18.20;99.90;;;;;;5057627;28;20632;-68
2021/07/31 07:46:41;;;;;;;15.83;14.90;;;18.20;99.90;;;;;;5059243;28;20521;-70
2021/07/31 07:49:07;;;;;;;16.00;15.00;;;18.40;99.90;;;;;;5054347;28;20818;-67
2021/07/31 07:51:34;;;;;;;16.73;15.70;;;18.50;99.90;;;;;;5057185;28;20470;-70
2021/07/31 07:54:01;;;;;;;16.50;15.50;;;18.60;99.90;;;;;;5054951;28;20459;-65
2021/07/31 07:56:29;;;;;;;17.40;15.70;;;18.60;99.90;;;;;;5059394;28;20464;-66
2021/07/31 07:58:59;;;;;;;15.03;13.73;;;18.40;99.90;;;;;;5052240;28;20820;-68
2021/07/31 08:01:28;;;;;;;16.20;15.20;;;18.30;99.90;;;;;;5061626;28;20550;-68
2021/07/31 08:03:56;;;;;;;16.10;14.80;;;18.40;99.90;;;;;;5058946;28;20937;-68
2021/07/31 08:06:23;;;;;;;14.23;13.37;;;18.80;99.90;;;;;;5059954;28;20855;-69
2021/07/31 08:08:50;;;;;;;16.07;15.10;;;19.10;99.90;;;;;;5057589;28;20470;-68
2021/07/31 08:11:17;;;;;;;15.53;14.53;;;19.50;99.90;;;;;;5055550;28;20459;-68
2021/07/31 08:13:44;;;;;;;15.10;14.00;;;19.20;99.90;;;;;;5056451;28;20460;-68
2021/07/31 08:16:13;;;;;;;15.93;14.90;;;19.40;99.90;;;;;;5058882;28;20479;-68
2021/07/31 08:18:41;;;;;;;14.17;13.47;;;19.50;99.90;;;;;;5057903;28;20470;-70
2021/07/31 08:21:08;;;;;;;15.40;14.27;;;19.40;99.90;;;;;;5055305;28;20466;-68
2021/07/31 08:23:37;;;;;;;15.53;14.43;;;19.50;99.90;;;;;;5055281;28;21295;-68
2021/07/31 08:26:05;;;;;;;15.73;14.73;;;19.70;99.90;;;;;;5056041;28;21017;-68
2021/07/31 08:28:32;;;;;;;16.30;15.00;;;20.00;99.90;;;;;;5054546;28;20606;-68
2021/07/31 08:30:59;;;;;;;15.70;14.60;;;20.10;99.90;;;;;;5057333;28;20459;-68
2021/07/31 08:33:27;;;;;;;15.53;14.60;;;20.10;99.90;;;;;;5052471;28;20454;-68
2021/07/31 08:35:59;;;;;;;15.20;14.20;;;19.90;99.90;;;;;;5057501;28;20460;-70
2021/07/31 08:38:26;;;;;;;15.20;14.37;;;19.60;99.90;;;;;;5051002;28;20525;-70
2021/07/31 08:40:53;;;;;;;14.80;13.90;;;19.70;99.90;;;;;;5053804;28;20470;-68
2021/07/31 08:43:20;;;;;;;15.47;14.60;;;19.70;99.90;;;;;;5055618;28;20463;-69
2021/07/31 08:45:48;;;;;;;15.73;14.83;;;19.30;99.90;;;;;;5060785;28;20483;-69
2021/07/31 08:48:16;;;;;;;15.97;15.07;;;19.70;99.90;;;;;;5056472;28;20537;-69
2021/07/31 08:50:45;;;;;;;16.50;15.00;;;19.80;99.90;;;;;;5049815;28;20467;-69
2021/07/31 08:53:12;;;;;;;16.27;15.23;;;19.40;99.90;;;;;;5051353;28;20464;-71
2021/07/31 08:55:42;;;;;;;13.97;13.17;;;19.80;99.90;;;;;;5058781;28;20459;-69
2021/07/31 08:58:09;;;;;;;13.90;13.20;;;20.50;99.90;;;;;;5052965;28;20502;-68
2021/07/31 09:00:36;;;;;;;14.70;13.87;;;20.60;99.90;;;;;;5058197;28;20463;-70
2021/07/31 09:03:04;;;;;;;15.63;14.57;;;20.70;99.90;;;;;;5049863;28;20949;-69
2021/07/31 09:05:33;;;;;;;14.40;13.60;;;20.30;99.90;;;;;;5057364;28;20472;-71
2021/07/31 09:08:03;;;;;;;15.20;14.30;;;19.70;99.90;;;;;;5056640;28;20941;-67
2021/07/31 09:10:32;;;;;;;15.30;14.30;;;19.40;99.90;;;;;;5056813;28;20937;-67
2021/07/31 09:13:01;;;;;;;14.33;13.40;;;19.50;99.90;;;;;;5061829;28;21021;-69
2021/07/31 09:15:36;;;;;;;13.57;12.77;;;20.40;99.90;;;;;;5060112;28;20455;-68
2021/07/31 09:18:23;;;;;;;14.73;13.50;;;20.60;99.90;;;;;;5058006;28;20456;-69
2021/07/31 09:21:01;;;;;;;14.50;13.40;;;21.10;99.90;;;;;;5057569;28;20470;-68
2021/07/31 09:23:46;;;;;;;14.27;13.57;;;21.30;99.90;;;;;;5052566;28;20456;-68
2021/07/31 09:26:20;;;;;;;13.80;13.10;;;21.70;99.90;;;;;;5049338;28;20511;-67
2021/07/31 09:28:59;;;;;;;14.30;13.60;;;22.10;99.90;;;;;;5046609;28;20543;-68
2021/07/31 09:31:27;;;;;;;15.40;13.93;;;21.90;99.90;;;;;;5055956;28;20950;-67
2021/07/31 09:33:54;;;;;;;15.20;14.33;;;21.90;99.90;;;;;;5052549;28;20835;-68
2021/07/31 09:36:21;;;;;;;15.50;14.30;;;21.60;99.90;;;;;;5052501;28;20458;-67
2021/07/31 09:38:50;;;;;;;14.97;14.07;;;21.20;99.90;;;;;;5056473;28;20803;-69
2021/07/31 09:41:38;;;;;;;14.00;13.20;;;21.80;99.90;;;;;;5055775;28;20456;-70
2021/07/31 09:44:11;;;;;;;14.23;13.43;;;22.10;99.90;;;;;;5057181;28;20483;-70
2021/07/31 09:46:40;;;;;;;15.80;14.50;;;22.40;99.90;;;;;;5053851;28;20483;-69
2021/07/31 09:49:09;;;;;;;15.60;14.30;;;22.00;99.90;;;;;;5053320;28;20464;-68
2021/07/31 09:51:38;;;;;;;17.10;15.70;;;21.30;99.90;;;;;;5051517;28;20464;-69
2021/07/31 09:54:09;;;;;;;14.93;13.93;;;20.60;99.90;;;;;;5053861;28;20448;-68
2021/07/31 09:56:45;;;;;;;14.40;13.70;;;20.80;99.90;;;;;;5054259;28;20961;-68
2021/07/31 09:59:13;;;;;;;14.73;13.93;;;21.40;99.90;;;;;;5057436;28;20798;-68
2021/07/31 10:01:43;;;;;;;15.80;14.60;;;22.20;99.90;;;;;;5050112;28;20958;-67
2021/07/31 10:04:10;;;;;;;15.67;14.67;;;22.20;99.90;;;;;;5059136;28;20456;-70
2021/07/31 10:06:38;;;;;;;15.40;14.40;;;21.90;99.90;;;;;;5054993;28;20978;-69
2021/07/31 10:09:08;;;;;;;16.37;15.27;;;22.00;99.90;;;;;;5053791;28;20483;-69
2021/07/31 10:11:36;;;;;;;15.17;14.40;;;21.50;99.90;;;;;;5053080;28;20455;-71
2021/07/31 10:14:05;;;;;;;15.63;14.50;;;21.90;99.90;;;;;;5053976;28;20454;-68
2021/07/31 10:16:33;;;;;;;15.57;14.57;;;22.50;99.90;;;;;;5054069;28;20471;-71
2021/07/31 10:19:02;;;;;;;14.90;14.10;;;23.20;99.90;;;;;;5051194;28;20517;-70
2021/07/31 10:21:35;;;;;;;14.43;13.63;;;23.30;99.90;;;;;;5058269;28;20598;-70
2021/07/31 10:24:05;;;;;;;15.23;14.20;;;23.10;99.90;;;;;;5057056;28;20780;-69
2021/07/31 10:26:34;;;;;;;15.50;14.27;;;23.40;99.90;;;;;;5051186;28;20498;-70
2021/07/31 10:29:38;;;;;;;14.90;14.00;;;23.40;99.90;;;;;;5057572;28;20959;-70
2021/07/31 10:32:37;;;;;;;14.57;13.77;;;22.50;99.90;;;;;;5054158;28;21223;-69
2021/07/31 10:35:06;;;;;;;14.80;14.00;;;22.00;99.90;;;;;;5053157;28;20464;-72
2021/07/31 10:37:45;;;;;;;15.00;13.93;;;21.80;99.90;;;;;;5052876;28;20482;-70
2021/07/31 10:40:31;;;;;;;14.60;13.60;;;22.00;99.90;;;;;;5052610;28;20466;-71
2021/07/31 10:43:07;;;;;;;14.67;13.67;;;22.20;99.90;;;;;;5053754;28;20946;-70
2021/07/31 10:45:35;;;;;;;15.23;13.93;;;22.80;99.90;;;;;;5052393;28;20478;-72
2021/07/31 10:48:04;;;;;;;14.27;13.47;;;23.10;99.90;;;;;;5048645;28;20440;-71
2021/07/31 10:50:40;;;;;;;14.67;13.57;;;23.00;99.90;;;;;;5052193;28;20571;-70
2021/07/31 10:53:10;;;;;;;14.90;14.00;;;22.90;99.90;;;;;;5049230;28;20942;-70
2021/07/31 10:56:01;;;;;;;14.10;13.40;;;22.90;99.90;;;;;;5059652;28;20455;-72
2021/07/31 10:58:31;;;;;;;13.90;13.20;;;23.30;99.90;;;;;;5059199;28;20463;-72
2021/07/31 11:01:23;;;;;;;13.97;13.27;;;23.80;99.90;;;;;;5050266;28;21095;-71
2021/07/31 11:03:51;;;;;;;15.37;14.27;;;24.50;99.90;;;;;;5041532;28;20457;-71
2021/07/31 11:06:18;;;;;;;14.10;13.47;;;23.90;99.90;;;;;;5052995;28;20572;-71
2021/07/31 11:09:12;;;;;;;13.80;13.10;;;24.10;99.90;;;;;;5057451;28;20456;-71
2021/07/31 11:11:39;;;;;;;14.00;13.30;;;24.40;99.90;;;;;;5058105;28;20862;-71
2021/07/31 11:14:08;;;;;;;14.50;13.70;;;23.80;99.90;;;;;;5055334;28;20478;-71
2021/07/31 11:16:35;;;;;;;14.50;13.67;;;23.50;99.90;;;;;;5052007;28;20499;-70
2021/07/31 11:19:03;;;;;;;14.50;13.60;;;23.80;99.90;;;;;;5054992;28;20809;-71
2021/07/31 11:21:32;;;;;;;14.23;13.43;;;23.00;99.90;;;;;;5049356;28;20467;-71
2021/07/31 11:24:02;;;;;;;15.67;14.67;;;22.80;99.90;;;;;;5051598;28;20456;-70
2021/07/31 11:26:41;;;;;;;15.10;14.27;;;23.30;99.90;;;;;;5056966;28;20671;-72
2021/07/31 11:29:11;;;;;;;13.90;13.10;;;23.50;99.90;;;;;;5054955;28;20459;-71
2021/07/31 11:31:39;;;;;;;13.77;12.97;;;23.90;99.90;;;;;;5054671;28;20458;-70
2021/07/31 11:34:08;;;;;;;15.30;14.43;;;24.60;99.90;;;;;;5054360;28;20455;-71
2021/07/31 11:36:38;;;;;;;14.30;13.50;;;25.10;99.90;;;;;;5054492;28;20506;-71
2021/07/31 11:39:06;;;;;;;15.10;14.40;;;25.40;99.90;;;;;;5056131;28;20527;-72
2021/07/31 11:41:40;;;;;;;15.10;14.30;;;24.90;99.90;;;;;;5054094;28;20908;-68
2021/07/31 11:44:10;;;;;;;14.13;13.33;;;24.30;99.90;;;;;;5053651;28;20528;-68
2021/07/31 11:46:39;;;;;;;14.73;13.63;;;24.40;99.90;;;;;;5054986;28;20545;-71
2021/07/31 11:49:10;;;;;;;13.50;12.50;;;24.30;99.90;;;;;;5057465;28;21033;-69
2021/07/31 11:51:44;;;;;;;14.90;13.87;;;25.10;99.90;;;;;;5058118;28;20446;-69
2021/07/31 11:54:12;;;;;;;14.37;13.20;;;25.50;99.90;;;;;;5056396;28;20465;-69
2021/07/31 11:56:40;;;;;;;14.47;13.77;;;25.30;99.90;;;;;;5049660;28;20528;-69
2021/07/31 11:59:10;;;;;;;15.20;14.27;;;24.30;99.90;;;;;;5051686;28;20463;-69
2021/07/31 12:01:38;;;;;;;14.90;13.73;;;23.30;99.90;;;;;;5054206;28;20460;-69
2021/07/31 12:04:07;;;;;;;15.47;14.67;;;22.30;99.90;;;;;;5057760;28;20448;-69
2021/07/31 12:06:42;;;;;;;16.67;15.20;;;22.00;99.90;;;;;;5056740;28;20482;-72
2021/07/31 12:09:25;;;;;;;15.37;14.37;;;22.10;99.90;;;;;;5063304;28;20454;-70
2021/07/31 12:11:54;;;;;;;14.70;13.70;;;22.60;99.90;;;;;;5062069;28;21002;-70
2021/07/31 12:14:37;;;;;;;14.40;13.50;;;22.30;99.90;;;;;;5058372;28;20462;-73
2021/07/31 12:17:14;;;;;;;14.03;13.33;;;22.30;99.90;;;;;;5055611;28;20494;-71
2021/07/31 12:19:41;;;;;;;15.50;14.37;;;23.10;99.90;;;;;;5057827;28;20459;-71
2021/07/31 12:22:11;;;;;;;14.07;13.23;;;24.30;99.90;;;;;;5058122;28;20467;-68
2021/07/31 12:24:38;;;;;;;13.70;13.10;;;24.90;99.90;;;;;;5057196;28;21075;-69
2021/07/31 12:27:05;;;;;;;13.60;12.97;;;25.10;99.90;;;;;;5055391;28;20482;-69
2021/07/31 12:29:38;;;;;;;13.97;13.17;;;25.00;99.90;;;;;;5058199;28;20460;-71
2021/07/31 12:32:25;;;;;;;14.53;13.40;;;25.00;99.90;;;;;;5061689;28;20945;-71
2021/07/31 12:34:53;;;;;;;14.57;13.20;;;25.30;99.90;;;;;;5061451;28;20462;-69
2021/07/31 12:37:23;;;;;;;14.43;13.63;;;25.40;99.90;;;;;;5058519;28;20509;-69